createdAt,value
2022-10-31T00:01:13.587Z,100076.59
2022-10-31T00:03:40.261Z,100097.75
2022-10-31T00:06:07.041Z,100073.13
2022-10-31T00:08:33.963Z,100059.44
2022-10-31T00:11:00.714Z,100093.00
2022-10-31T00:13:27.653Z,100073.28
2022-10-31T00:15:54.333Z,100104.59
2022-10-31T00:18:21.135Z,100091.88
2022-10-31T00:20:47.962Z,100113.47
2022-10-31T00:23:14.654Z,100097.03
2022-10-31T00:25:41.777Z,100118.31
2022-10-31T00:28:10.739Z,100123.28
2022-10-31T00:30:37.400Z,100122.97
2022-10-31T00:33:06.936Z,100114.19
2022-10-31T00:35:33.955Z,100146.06
2022-10-31T00:38:00.905Z,100090.19
2022-10-31T00:40:27.831Z,100132.72
2022-10-31T00:42:54.587Z,100133.84
2022-10-31T00:45:21.262Z,100134.09
2022-10-31T00:47:47.912Z,100133.09
2022-10-31T00:50:14.568Z,100148.06
2022-10-31T00:52:41.248Z,100143.88
2022-10-31T00:55:08.211Z,100114.75
2022-10-31T00:57:34.823Z,100134.34
2022-10-31T01:00:01.516Z,100148.81
2022-10-31T01:02:28.381Z,100123.94
2022-10-31T01:04:55.210Z,100133.72
2022-10-31T01:07:21.925Z,100133.91
2022-10-31T01:09:48.597Z,100145.06
2022-10-31T01:12:15.257Z,100162.47
2022-10-31T01:14:45.928Z,100149.44
2022-10-31T01:17:13.532Z,100166.13
2022-10-31T01:19:40.624Z,100158.69
2022-10-31T01:22:07.357Z,100113.84
2022-10-31T01:24:34.910Z,100164.06
2022-10-31T01:27:01.530Z,100146.97
2022-10-31T01:29:28.182Z,100134.19
2022-10-31T01:31:54.835Z,100133.91
2022-10-31T01:34:21.613Z,100175.53
2022-10-31T01:36:52.380Z,100168.50
2022-10-31T01:39:20.504Z,100167.66
2022-10-31T01:41:49.901Z,100175.69
2022-10-31T01:44:16.933Z,100170.97
2022-10-31T01:46:55.018Z,100180.69
2022-10-31T01:49:24.257Z,100174.84
2022-10-31T01:52:00.089Z,100154.00
2022-10-31T01:54:30.885Z,100159.94
2022-10-31T01:57:00.236Z,100164.66
2022-10-31T01:59:32.217Z,100170.75
2022-10-31T02:01:59.064Z,100154.44
2022-10-31T02:04:27.136Z,100169.94
2022-10-31T02:07:06.220Z,100161.44
2022-10-31T02:09:33.287Z,100160.88
2022-10-31T02:12:00.938Z,100156.44
2022-10-31T02:14:30.348Z,100152.06
2022-10-31T02:16:57.800Z,100167.75
2022-10-31T02:19:43.290Z,100172.00
2022-10-31T02:22:15.940Z,100175.22
2022-10-31T02:25:16.684Z,100179.72
2022-10-31T02:27:55.412Z,100120.25
2022-10-31T02:30:25.727Z,100136.97
2022-10-31T02:33:07.984Z,100142.50
2022-10-31T02:35:42.826Z,100157.38
2022-10-31T02:38:30.907Z,100141.78
2022-10-31T02:41:34.881Z,100166.19
2022-10-31T02:44:16.335Z,100184.41
2022-10-31T02:47:06.492Z,100165.00
2022-10-31T02:49:46.056Z,100169.69
2022-10-31T02:52:25.094Z,100183.88
2022-10-31T02:54:52.131Z,100185.16
2022-10-31T02:57:25.833Z,100191.00
2022-10-31T03:00:02.117Z,100183.84
2022-10-31T03:03:00.052Z,100202.25
2022-10-31T03:05:32.897Z,100194.88
2022-10-31T03:08:37.077Z,100198.72
2022-10-31T03:11:09.084Z,100196.47
2022-10-31T03:13:42.292Z,100196.69
2022-10-31T03:16:13.341Z,100194.66
2022-10-31T03:19:01.096Z,100202.28
2022-10-31T03:21:36.834Z,100168.13
2022-10-31T03:24:07.374Z,100213.88
2022-10-31T03:26:37.078Z,100161.09
2022-10-31T03:29:08.008Z,100201.78
2022-10-31T03:31:43.598Z,100203.44
2022-10-31T03:34:13.551Z,100198.28
2022-10-31T03:36:42.417Z,100152.84
2022-10-31T03:39:14.069Z,100217.94
2022-10-31T03:41:45.284Z,100201.19
2022-10-31T03:44:22.210Z,100209.06
2022-10-31T03:46:49.509Z,100196.63
2022-10-31T03:49:17.096Z,100199.72
2022-10-31T03:51:47.321Z,100199.41
2022-10-31T03:54:32.609Z,100206.25
2022-10-31T03:57:25.959Z,100186.50
2022-10-31T03:59:58.469Z,100207.13
2022-10-31T04:02:30.939Z,100198.03
2022-10-31T04:04:58.834Z,100190.66
2022-10-31T04:07:31.359Z,100180.03
2022-10-31T04:10:01.157Z,100178.59
2022-10-31T04:12:30.701Z,100174.94
2022-10-31T04:14:58.800Z,100170.31
2022-10-31T04:17:31.210Z,100167.56
2022-10-31T04:20:01.457Z,100174.38
2022-10-31T04:22:28.267Z,100133.94
2022-10-31T04:24:54.914Z,100150.13
2022-10-31T04:27:21.692Z,100162.81
2022-10-31T04:29:50.799Z,100143.16
2022-10-31T04:32:17.944Z,100112.41
2022-10-31T04:34:44.681Z,100171.69
2022-10-31T04:37:11.404Z,100120.09
2022-10-31T04:39:38.150Z,100135.56
2022-10-31T04:42:04.942Z,100178.25
2022-10-31T04:44:31.696Z,100179.38
2022-10-31T04:46:58.367Z,100147.94
2022-10-31T04:49:25.119Z,100185.91
2022-10-31T04:51:51.828Z,100154.34
2022-10-31T04:54:19.023Z,100158.63
2022-10-31T04:56:45.733Z,100167.34
2022-10-31T04:59:12.367Z,100142.47
2022-10-31T05:01:39.161Z,100162.09
2022-10-31T05:04:05.877Z,100158.41
2022-10-31T05:06:32.606Z,100132.81
2022-10-31T05:08:59.803Z,100140.84
2022-10-31T05:11:26.416Z,100166.66
2022-10-31T05:13:53.149Z,100122.38
2022-10-31T05:16:19.823Z,100144.50
2022-10-31T05:18:46.568Z,100170.19
2022-10-31T05:21:13.198Z,100152.25
2022-10-31T05:23:44.376Z,100113.44
2022-10-31T05:26:14.260Z,100126.22
2022-10-31T05:28:40.907Z,100118.91
2022-10-31T05:31:07.702Z,100146.59
2022-10-31T05:33:34.447Z,100135.47
2022-10-31T05:36:01.113Z,100176.78
2022-10-31T05:38:27.793Z,100163.31
2022-10-31T05:41:06.815Z,100173.66
2022-10-31T05:43:33.500Z,100161.78
2022-10-31T05:46:00.214Z,100177.56
2022-10-31T05:48:26.891Z,100137.50
2022-10-31T05:50:53.537Z,100133.34
2022-10-31T05:53:20.308Z,100160.63
2022-10-31T05:55:47.597Z,100160.66
2022-10-31T05:58:14.339Z,100147.00
2022-10-31T06:00:41.139Z,100148.03
2022-10-31T06:05:41.249Z,100137.78
2022-10-31T06:08:07.903Z,100122.19
2022-10-31T06:10:34.601Z,100140.44
2022-10-31T06:13:01.294Z,100091.94
2022-10-31T06:15:28.058Z,100135.19
2022-10-31T06:18:05.846Z,100093.50
2022-10-31T06:20:33.495Z,100155.88
2022-10-31T06:23:00.504Z,100153.41
2022-10-31T06:25:28.388Z,100130.00
2022-10-31T06:27:56.887Z,100158.81
2022-10-31T06:30:23.757Z,100167.44
2022-10-31T06:32:50.833Z,100139.00
2022-10-31T06:35:17.861Z,100153.16
2022-10-31T06:37:51.429Z,100124.78
2022-10-31T06:40:18.114Z,100136.31
2022-10-31T06:42:44.770Z,100089.22
2022-10-31T06:45:11.559Z,100090.56
2022-10-31T06:47:56.850Z,100110.22
2022-10-31T06:50:25.100Z,100103.28
2022-10-31T06:52:56.788Z,100120.69
2022-10-31T06:55:25.397Z,100103.59
2022-10-31T06:58:03.284Z,100145.44
2022-10-31T07:00:31.289Z,100149.66
2022-10-31T07:03:02.849Z,100155.41
2022-10-31T07:05:30.507Z,100140.78
2022-10-31T07:08:02.500Z,100170.56
2022-10-31T07:10:33.154Z,100160.72
2022-10-31T07:13:04.672Z,100162.03
2022-10-31T07:15:36.900Z,100154.88
2022-10-31T07:18:06.037Z,100148.38
2022-10-31T07:20:33.066Z,100157.97
2022-10-31T07:23:00.020Z,100178.50
2022-10-31T07:25:27.436Z,100177.00
2022-10-31T07:27:54.223Z,100182.22
2022-10-31T07:30:20.971Z,100192.69
2022-10-31T07:32:49.920Z,100202.84
2022-10-31T07:35:25.016Z,100189.03
2022-10-31T07:37:51.953Z,100185.88
2022-10-31T07:40:19.850Z,100163.16
2022-10-31T07:42:50.206Z,100169.53
2022-10-31T07:45:19.654Z,100167.31
2022-10-31T07:47:54.038Z,100178.69
2022-10-31T07:50:32.144Z,100184.34
2022-10-31T07:53:07.963Z,100189.31
2022-10-31T07:55:35.204Z,100184.38
2022-10-31T07:58:10.747Z,100182.78
2022-10-31T08:00:41.900Z,100195.16
2022-10-31T08:03:11.285Z,100196.31
2022-10-31T08:05:38.824Z,100206.44
2022-10-31T08:08:06.342Z,100195.34
2022-10-31T08:10:34.012Z,100192.50
2022-10-31T08:13:02.651Z,100201.00
2022-10-31T08:15:30.042Z,100193.69
2022-10-31T08:17:56.980Z,100203.28
2022-10-31T08:20:24.335Z,100196.75
2022-10-31T08:23:01.719Z,100197.81
2022-10-31T08:25:33.703Z,100193.03
2022-10-31T08:28:04.202Z,100175.84
2022-10-31T08:30:32.940Z,100199.00
2022-10-31T08:33:14.493Z,100182.78
2022-10-31T08:35:41.879Z,100160.63
2022-10-31T08:38:10.808Z,100184.69
2022-10-31T08:40:38.048Z,100171.41
2022-10-31T08:43:12.693Z,100136.31
2022-10-31T08:45:39.688Z,100191.13
2022-10-31T08:48:10.364Z,100184.19
2022-10-31T08:50:37.768Z,100181.34
2022-10-31T08:53:07.320Z,100182.75
2022-10-31T08:55:36.508Z,100186.13
2022-10-31T08:58:05.631Z,100159.81
2022-10-31T09:00:33.447Z,100178.91
2022-10-31T09:03:02.388Z,100169.78
2022-10-31T09:05:29.672Z,100149.97
2022-10-31T09:08:00.797Z,100176.09
2022-10-31T09:10:29.620Z,100181.19
2022-10-31T09:13:01.136Z,100152.22
2022-10-31T09:15:29.369Z,100138.22
2022-10-31T09:17:56.098Z,100149.03
2022-10-31T09:20:23.617Z,100157.84
2022-10-31T09:23:01.470Z,100157.84
2022-10-31T09:25:28.944Z,100162.44
2022-10-31T09:28:00.318Z,100155.59
2022-10-31T09:30:31.189Z,100159.34
2022-10-31T09:32:59.399Z,100149.13
2022-10-31T09:35:27.137Z,100141.97
2022-10-31T09:37:58.842Z,100125.81
2022-10-31T09:40:32.689Z,100130.13
2022-10-31T09:43:38.167Z,100141.38
2022-10-31T09:46:23.646Z,100146.28
2022-10-31T09:49:05.649Z,100136.22
2022-10-31T09:51:41.467Z,100140.69
2022-10-31T09:54:17.412Z,100127.44
2022-10-31T09:56:45.069Z,100101.50
2022-10-31T09:59:29.252Z,100112.03
2022-10-31T10:02:01.511Z,100121.38
2022-10-31T10:04:34.533Z,100121.19
2022-10-31T10:07:06.856Z,100134.41
2022-10-31T10:09:33.611Z,100119.34
2022-10-31T10:12:21.320Z,100136.38
2022-10-31T10:15:14.815Z,100130.16
2022-10-31T10:18:02.020Z,100112.50
2022-10-31T10:21:00.955Z,100129.59
2022-10-31T10:23:33.645Z,100130.28
2022-10-31T10:26:20.602Z,100128.06
2022-10-31T10:28:53.401Z,100114.41
2022-10-31T10:31:25.624Z,100118.44
2022-10-31T10:33:58.439Z,100143.94
2022-10-31T10:36:35.766Z,100149.66
2022-10-31T10:39:10.759Z,100117.00
2022-10-31T10:41:39.354Z,100132.81
2022-10-31T10:44:11.402Z,100138.25
2022-10-31T10:47:14.701Z,100137.69
2022-10-31T10:49:53.009Z,100147.50
2022-10-31T10:52:41.722Z,100139.75
2022-10-31T10:55:30.509Z,100144.63
2022-10-31T10:58:07.245Z,100151.34
2022-10-31T11:00:39.644Z,100133.91
2022-10-31T11:03:07.148Z,100125.56
2022-10-31T11:05:51.034Z,100156.50
2022-10-31T11:08:32.088Z,100150.31
2022-10-31T11:11:15.844Z,100123.69
2022-10-31T11:13:44.597Z,100137.94
2022-10-31T11:16:41.061Z,100167.88
2022-10-31T11:19:16.114Z,100151.13
2022-10-31T11:21:43.324Z,100141.53
2022-10-31T11:24:09.926Z,100152.56
2022-10-31T11:26:39.126Z,100150.72
2022-10-31T11:29:07.047Z,100135.06
2022-10-31T11:31:35.903Z,100125.06
2022-10-31T11:34:14.952Z,100135.38
2022-10-31T11:36:45.269Z,100136.66
2022-10-31T11:39:23.413Z,100141.34
2022-10-31T11:41:51.684Z,100137.03
2022-10-31T11:44:30.229Z,100128.53
2022-10-31T11:47:06.867Z,100118.00
2022-10-31T11:49:33.472Z,100124.97
2022-10-31T11:52:04.556Z,100125.59
2022-10-31T11:54:37.876Z,100101.34
2022-10-31T11:57:04.836Z,100127.19
2022-10-31T11:59:35.233Z,100136.31
2022-10-31T12:02:02.846Z,100140.06
2022-10-31T12:04:41.423Z,100129.00
2022-10-31T12:07:08.118Z,100131.28
2022-10-31T12:09:36.605Z,100125.69
2022-10-31T12:12:33.102Z,100115.38
2022-10-31T12:15:18.444Z,100123.69
2022-10-31T12:17:54.123Z,100121.00
2022-10-31T12:20:51.648Z,100123.69
2022-10-31T12:23:27.539Z,100112.06
2022-10-31T12:26:09.412Z,100114.09
2022-10-31T12:28:45.394Z,100091.78
2022-10-31T12:31:45.615Z,100082.50
2022-10-31T12:34:21.378Z,100099.88
2022-10-31T12:37:29.446Z,100102.22
2022-10-31T12:40:07.132Z,100085.59
2022-10-31T12:42:54.594Z,100097.91
2022-10-31T12:45:33.404Z,100098.66
2022-10-31T12:48:25.190Z,100097.13
2022-10-31T12:51:19.380Z,100107.69
2022-10-31T12:54:14.926Z,100093.50
2022-10-31T12:56:47.585Z,100109.44
2022-10-31T12:59:36.935Z,100113.41
2022-10-31T13:02:06.549Z,100107.09
2022-10-31T13:04:39.886Z,100081.66
2022-10-31T13:07:09.540Z,100115.03
2022-10-31T13:09:36.202Z,100106.97
2022-10-31T13:12:10.245Z,100095.59
2022-10-31T13:14:44.281Z,100084.56
2022-10-31T13:17:43.231Z,100086.97
2022-10-31T13:20:21.305Z,100093.81
2022-10-31T13:22:53.064Z,100070.94
2022-10-31T13:25:25.681Z,100087.69
2022-10-31T13:28:10.941Z,100081.59
2022-10-31T13:30:42.943Z,100065.38
2022-10-31T13:33:12.934Z,100070.50
2022-10-31T13:35:42.811Z,100070.75
2022-10-31T13:38:49.573Z,100061.34
2022-10-31T13:42:01.466Z,100056.81
2022-10-31T13:44:32.198Z,100065.88
2022-10-31T13:47:01.206Z,100048.97
2022-10-31T13:49:30.855Z,100044.97
2022-10-31T13:52:15.268Z,100026.88
2022-10-31T13:54:56.714Z,100028.59
2022-10-31T13:57:38.908Z,100036.41
2022-10-31T14:00:20.632Z,100060.25
2022-10-31T14:02:52.500Z,100034.31
2022-10-31T14:05:27.172Z,100042.63
2022-10-31T14:07:55.855Z,100013.31
2022-10-31T14:10:26.736Z,100032.41
2022-10-31T14:12:55.708Z,100023.13
2022-10-31T14:15:31.945Z,100025.19
2022-10-31T14:18:06.599Z,100014.16
2022-10-31T14:20:33.901Z,100012.72
2022-10-31T14:23:29.699Z,100007.47
2022-10-31T14:26:21.250Z,100013.34
2022-10-31T14:28:49.971Z,99995.59
2022-10-31T14:31:40.600Z,100005.75
2022-10-31T14:34:10.533Z,100022.59
2022-10-31T14:37:06.007Z,100011.59
2022-10-31T14:39:45.020Z,100002.19
2022-10-31T14:42:49.325Z,100008.84
2022-10-31T14:45:28.233Z,100001.34
2022-10-31T14:48:06.762Z,100001.91
2022-10-31T14:51:02.272Z,99986.94
2022-10-31T14:53:34.132Z,99985.41
2022-10-31T14:56:06.644Z,99990.22
2022-10-31T14:58:44.451Z,99977.63
2022-10-31T15:01:39.845Z,100006.63
2022-10-31T15:04:33.696Z,100006.63
2022-10-31T15:07:24.952Z,100000.53
2022-10-31T15:09:59.115Z,100006.16
2022-10-31T15:12:29.564Z,99999.50
2022-10-31T15:14:57.119Z,100000.63
2022-10-31T15:17:26.286Z,99995.81
2022-10-31T15:19:54.082Z,100007.19
2022-10-31T15:22:24.457Z,100000.19
2022-10-31T15:24:57.549Z,100002.66
2022-10-31T15:27:25.840Z,99994.41
2022-10-31T15:29:57.330Z,99982.38
2022-10-31T15:32:29.417Z,100004.63
2022-10-31T15:34:57.793Z,99991.81
2022-10-31T15:37:27.342Z,99984.16
2022-10-31T15:39:54.405Z,99986.44
2022-10-31T15:42:29.542Z,99984.34
2022-10-31T15:45:19.542Z,99995.38
2022-10-31T15:47:50.360Z,99987.28
2022-10-31T15:50:33.496Z,99993.56
2022-10-31T15:53:02.163Z,99998.13
2022-10-31T15:55:33.368Z,99993.69
2022-10-31T15:58:05.774Z,99996.88
2022-10-31T16:00:35.915Z,100014.16
2022-10-31T16:03:14.945Z,99995.38
2022-10-31T16:05:49.357Z,100010.09
2022-10-31T16:08:31.205Z,100009.84
2022-10-31T16:11:04.118Z,100011.09
2022-10-31T16:13:33.204Z,99998.38
2022-10-31T16:16:33.981Z,100013.94
2022-10-31T16:19:03.323Z,100016.03
2022-10-31T16:21:36.102Z,100011.16
2022-10-31T16:24:15.202Z,100012.31
2022-10-31T16:26:42.210Z,100016.34
2022-10-31T16:29:33.762Z,100013.88
2022-10-31T16:32:00.433Z,100012.88
2022-10-31T16:34:27.298Z,99998.03
2022-10-31T16:36:54.177Z,100004.66
2022-10-31T16:39:21.205Z,99992.94
2022-10-31T16:41:50.481Z,99977.38
2022-10-31T16:44:25.758Z,100007.88
2022-10-31T16:47:11.158Z,100007.72
2022-10-31T16:49:37.990Z,99982.34
2022-10-31T16:52:04.886Z,99979.44
2022-10-31T16:54:31.732Z,100007.25
2022-10-31T16:57:04.885Z,99997.19
2022-10-31T16:59:34.406Z,100006.84
2022-10-31T17:02:02.282Z,100002.19
2022-10-31T17:04:29.624Z,100005.06
2022-10-31T17:06:56.280Z,100006.75
2022-10-31T17:09:22.898Z,100007.41
2022-10-31T17:11:52.639Z,99996.16
2022-10-31T17:14:20.310Z,100007.44
2022-10-31T17:16:47.051Z,100020.06
2022-10-31T17:19:14.230Z,100039.56
2022-10-31T17:21:41.503Z,99999.75
2022-10-31T17:24:14.059Z,100033.97
2022-10-31T17:26:41.049Z,100014.28
2022-10-31T17:29:08.356Z,100037.72
2022-10-31T17:31:36.861Z,100048.94
2022-10-31T17:34:07.151Z,100015.41
2022-10-31T17:36:35.241Z,100025.44
2022-10-31T17:39:03.660Z,100028.06
2022-10-31T17:41:30.451Z,100018.78
2022-10-31T17:43:57.830Z,100025.28
2022-10-31T17:46:24.819Z,100053.63
2022-10-31T17:48:51.481Z,100026.28
2022-10-31T17:51:18.285Z,99968.56
2022-10-31T17:53:45.116Z,99998.06
2022-10-31T17:56:12.276Z,100017.09
2022-10-31T17:58:39.071Z,99982.97
2022-10-31T18:01:15.704Z,99994.88
2022-10-31T18:03:42.715Z,100016.47
2022-10-31T18:06:10.740Z,100026.03
2022-10-31T18:08:39.115Z,100022.16
2022-10-31T18:11:09.664Z,100002.84
2022-10-31T18:13:37.672Z,100007.34
2022-10-31T18:16:12.538Z,100008.28
2022-10-31T18:18:39.720Z,100009.03
2022-10-31T18:21:06.839Z,100019.19
2022-10-31T18:23:33.717Z,100007.59
2022-10-31T18:26:00.406Z,99989.53
2022-10-31T18:28:27.171Z,99977.66
2022-10-31T18:30:53.897Z,99983.44
2022-10-31T18:33:20.717Z,100004.25
2022-10-31T18:35:47.507Z,99986.44
2022-10-31T18:38:14.209Z,99994.84
2022-10-31T18:40:40.940Z,99984.63
2022-10-31T18:43:07.717Z,99978.19
2022-10-31T18:45:46.636Z,100018.25
2022-10-31T18:48:14.934Z,99995.53
2022-10-31T18:50:42.394Z,100031.25
2022-10-31T18:53:09.150Z,100029.19
2022-10-31T18:55:43.920Z,100021.00
2022-10-31T18:58:14.152Z,100023.75
2022-10-31T19:00:40.821Z,100019.19
2022-10-31T19:19:20.262Z,99998.09
2022-10-31T19:21:56.115Z,100020.84
2022-10-31T20:02:05.716Z,99974.09
2022-10-31T20:04:32.406Z,99961.41
2022-10-31T20:06:59.076Z,99974.16
2022-10-31T20:09:25.819Z,99949.69
2022-10-31T20:11:52.724Z,99950.28
2022-10-31T20:14:19.462Z,99983.16
2022-10-31T20:16:46.668Z,99952.38
2022-10-31T20:19:13.409Z,99967.88
2022-10-31T20:21:41.556Z,99986.66
2022-10-31T20:24:10.324Z,99935.09
2022-10-31T20:26:39.298Z,99964.97
2022-10-31T20:29:06.088Z,99960.16
2022-10-31T20:31:36.506Z,99943.47
2022-10-31T20:34:03.789Z,99935.88
2022-10-31T20:36:31.098Z,99949.75
2022-10-31T20:38:59.594Z,99953.69
2022-10-31T20:41:26.693Z,99955.84
2022-10-31T20:43:53.849Z,99949.47
2022-10-31T20:46:23.904Z,99925.16
2022-10-31T20:48:51.984Z,99921.78
2022-10-31T20:51:25.294Z,99944.03
2022-10-31T20:53:53.554Z,99937.28
2022-10-31T20:56:22.699Z,99934.63
2022-10-31T20:58:49.841Z,99938.56
2022-10-31T21:01:19.435Z,99949.66
2022-10-31T21:03:47.718Z,99937.16
2022-10-31T21:06:15.856Z,99930.41
2022-10-31T21:08:49.673Z,99945.69
2022-10-31T21:11:21.395Z,99927.59
2022-10-31T21:13:53.310Z,99923.16
2022-10-31T21:16:26.268Z,99932.94
2022-10-31T21:18:53.858Z,99918.09
2022-10-31T21:21:29.091Z,99919.59
2022-10-31T21:24:04.965Z,99919.06
2022-10-31T21:26:36.654Z,99922.53
2022-10-31T21:29:05.536Z,99900.75
2022-10-31T21:31:35.344Z,99905.44
2022-10-31T21:34:08.082Z,99900.28
2022-10-31T21:36:37.716Z,99903.47
2022-10-31T21:39:06.790Z,99898.69
2022-10-31T21:41:33.513Z,99873.03
2022-10-31T21:44:00.286Z,99889.19
2022-10-31T21:46:29.754Z,99911.13
2022-10-31T21:48:57.332Z,99890.78
2022-10-31T21:51:33.062Z,99906.44
2022-10-31T21:54:18.637Z,99909.47
2022-10-31T21:56:45.733Z,99878.00
2022-10-31T21:59:12.665Z,99856.53
2022-10-31T22:01:39.801Z,99870.22
2022-10-31T22:04:06.944Z,99873.31
2022-10-31T22:06:34.295Z,99895.28
2022-10-31T22:09:03.041Z,99846.94
2022-10-31T22:11:29.968Z,99887.88
2022-10-31T22:13:59.350Z,99856.91
2022-10-31T22:16:28.020Z,99883.91
2022-10-31T22:18:57.040Z,99886.94
2022-10-31T22:21:25.821Z,99871.94
2022-10-31T22:24:01.790Z,99847.97
2022-10-31T22:26:32.192Z,99854.47
2022-10-31T22:29:02.352Z,99846.94
2022-10-31T22:31:30.911Z,99863.38
2022-10-31T22:33:57.957Z,99818.13
2022-10-31T22:36:27.764Z,99827.25
2022-10-31T22:38:54.831Z,99838.63
2022-10-31T22:41:24.291Z,99778.16
2022-10-31T22:43:51.476Z,99813.41
2022-10-31T22:46:21.060Z,99797.16
2022-10-31T22:48:52.666Z,99798.75
2022-10-31T22:51:24.593Z,99804.66
2022-10-31T22:53:52.037Z,99788.94
2022-10-31T22:56:23.346Z,99794.13
2022-10-31T22:58:50.405Z,99788.63
2022-10-31T23:01:23.159Z,99760.72
2022-10-31T23:03:50.628Z,99741.16
2022-10-31T23:06:28.509Z,99746.16
2022-10-31T23:08:55.215Z,99751.94
2022-10-31T23:11:24.726Z,99751.59
2022-10-31T23:14:10.914Z,99732.59
2022-10-31T23:16:40.789Z,99747.34
2022-10-31T23:19:09.188Z,99727.25
2022-10-31T23:21:54.747Z,99736.31
2022-10-31T23:24:39.155Z,99729.22
2022-10-31T23:27:11.926Z,99738.19
2022-10-31T23:29:43.673Z,99701.81
2022-10-31T23:32:24.952Z,99722.06
2022-10-31T23:34:54.167Z,99672.09
2022-10-31T23:37:22.858Z,99701.28
2022-10-31T23:39:50.246Z,99694.13
2022-10-31T23:42:18.725Z,99700.63
2022-10-31T23:44:46.028Z,99719.72
2022-10-31T23:47:13.657Z,99726.28
2022-10-31T23:49:40.971Z,99719.22
2022-10-31T23:52:08.495Z,99707.88
2022-10-31T23:54:35.585Z,99703.25
2022-10-31T23:57:02.442Z,99716.44
2022-10-31T23:59:29.947Z,99695.66
